Mesa.AZweather.com - Mesa, AZ
   Red Mountain Frwy and University Dr., El 1518 ft.
       --- Thursday  June 13, 2019 ---
 
 High Temperature ..  108F at 15:24
 Low Temperature ...  76F at 04:55
 
 High Humidity .....  22% at 22:07
 Low Humidity ......  9% at 10:51
 
 Rainfall Total ....  0.00 in.
 
 High Wind Speed ... ---
                     
 
 High Barometer ....  29.88 at 09:23
 Low Barometer .....  29.72 at 18:53
 
Dew Point    High .... 40   Low ..... 26
 
 
 Time   Temp  Humi  Rain     Baro  DewPt  Wind
00:00,  80F, 16%, 0.00 in, 29.81, 30F, ---
00:30,  80F, 17%, 0.00 in, 29.82, 32F, ---
01:00,  80F, 15%, 0.00 in, 29.82, 29F, ---
01:30,  79F, 15%, 0.00 in, 29.83, 27F, ---
02:00,  79F, 14%, 0.00 in, 29.83, 26F, ---
02:30,  79F, 15%, 0.00 in, 29.82, 27F, ---
03:00,  78F, 15%, 0.00 in, 29.82, 27F, ---
03:30,  79F, 15%, 0.00 in, 29.82, 27F, ---
04:00,  79F, 15%, 0.00 in, 29.82, 27F, ---
04:30,  78F, 15%, 0.00 in, 29.83, 27F, ---
05:00,  76F, 17%, 0.00 in, 29.84, 27F, ---
05:30,  76F, 18%, 0.00 in, 29.85, 29F, ---
06:00,  78F, 18%, 0.00 in, 29.84, 32F, ---
06:30,  81F, 18%, 0.00 in, 29.85, 33F, ---
07:00,  83F, 17%, 0.00 in, 29.86, 33F, ---
07:30,  87F, 15%, 0.00 in, 29.87, 34F, ---
08:00,  88F, 15%, 0.00 in, 29.86, 34F, ---
08:30,  90F, 14%, 0.00 in, 29.87, 34F, ---
09:00,  94F, 12%, 0.00 in, 29.87, 33F, ---
09:30,  96F, 12%, 0.00 in, 29.87, 36F, ---
10:00,  98F, 11%, 0.00 in, 29.87, 35F, ---
10:30,  101F, 10%, 0.00 in, 29.87, 34F, ---
11:00,  104F, 9%, 0.00 in, 29.87, 34F, ---
11:30,  102F, 10%, 0.00 in, 29.87, 35F, ---
12:00,  102F, 10%, 0.00 in, 29.86, 35F, ---
12:30,  103F, 10%, 0.00 in, 29.85, 35F, ---
13:00,  102F, 10%, 0.00 in, 29.84, 35F, ---
13:30,  102F, 10%, 0.00 in, 29.82, 35F, ---
14:00,  102F, 11%, 0.00 in, 29.82, 38F, ---
14:30,  104F, 10%, 0.00 in, 29.80, 37F, ---
15:00,  104F, 10%, 0.00 in, 29.79, 37F, ---
15:30,  107F, 9%, 0.00 in, 29.77, 37F, ---
16:00,  106F, 9%, 0.00 in, 29.76, 35F, ---
16:30,  107F, 9%, 0.00 in, 29.75, 37F, ---
17:00,  106F, 9%, 0.00 in, 29.74, 35F, ---
17:30,  106F, 10%, 0.00 in, 29.73, 38F, ---
18:00,  104F, 10%, 0.00 in, 29.73, 37F, ---
18:30,  102F, 10%, 0.00 in, 29.73, 35F, ---
19:00,  101F, 11%, 0.00 in, 29.73, 36F, ---
19:30,  99F, 11%, 0.00 in, 29.73, 35F, ---
20:00,  96F, 12%, 0.00 in, 29.73, 36F, ---
20:30,  92F, 15%, 0.00 in, 29.74, 37F, ---
21:00,  88F, 17%, 0.00 in, 29.75, 38F, ---
21:30,  87F, 18%, 0.00 in, 29.76, 39F, ---
22:00,  84F, 21%, 0.00 in, 29.77, 40F, ---
22:30,  84F, 19%, 0.00 in, 29.78, 38F, ---
23:00,  82F, 21%, 0.00 in, 29.78, 39F, ---
23:30,  79F, 22%, 0.00 in, 29.79, 37F, ---
23:59,  77F, 22%, 0.00 in, 29.80, 35F, ---